sensor_id;sensor_type;location;lat;lon;timestamp;temperature;humidity
13464;DHT22;6804;48.774;9.174;2022-11-09T00:00:44;13.80;99.90
13464;DHT22;6804;48.774;9.174;2022-11-09T00:03:11;13.90;99.90
13464;DHT22;6804;48.774;9.174;2022-11-09T00:05:39;13.90;99.90
13464;DHT22;6804;48.774;9.174;2022-11-09T00:08:11;13.90;99.90
13464;DHT22;6804;48.774;9.174;2022-11-09T00:10:38;13.90;99.90
13464;DHT22;6804;48.774;9.174;2022-11-09T00:13:08;13.90;99.90
13464;DHT22;6804;48.774;9.174;2022-11-09T00:15:35;13.90;99.90
13464;DHT22;6804;48.774;9.174;2022-11-09T00:18:02;13.90;99.90
13464;DHT22;6804;48.774;9.174;2022-11-09T00:20:29;14.00;99.90
13464;DHT22;6804;48.774;9.174;2022-11-09T00:22:59;14.00;99.90
13464;DHT22;6804;48.774;9.174;2022-11-09T00:25:28;14.00;99.90
13464;DHT22;6804;48.774;9.174;2022-11-09T00:27:58;14.00;99.90
13464;DHT22;6804;48.774;9.174;2022-11-09T00:30:26;14.00;99.90
13464;DHT22;6804;48.774;9.174;2022-11-09T00:32:54;14.00;99.90
13464;DHT22;6804;48.774;9.174;2022-11-09T00:35:25;14.00;99.90
13464;DHT22;6804;48.774;9.174;2022-11-09T00:37:56;14.00;99.90
13464;DHT22;6804;48.774;9.174;2022-11-09T00:40:29;14.00;99.90
13464;DHT22;6804;48.774;9.174;2022-11-09T00:42:59;14.00;99.90
13464;DHT22;6804;48.774;9.174;2022-11-09T00:45:27;14.00;99.90
13464;DHT22;6804;48.774;9.174;2022-11-09T00:47:55;14.00;99.90
13464;DHT22;6804;48.774;9.174;2022-11-09T00:50:22;14.00;99.90
13464;DHT22;6804;48.774;9.174;2022-11-09T00:52:49;14.00;99.90
13464;DHT22;6804;48.774;9.174;2022-11-09T00:55:19;14.00;99.90
13464;DHT22;6804;48.774;9.174;2022-11-09T00:57:49;14.00;99.90
13464;DHT22;6804;48.774;9.174;2022-11-09T01:00:20;14.00;99.90
13464;DHT22;6804;48.774;9.174;2022-11-09T01:02:49;14.00;99.90
13464;DHT22;6804;48.774;9.174;2022-11-09T01:05:16;14.00;99.90
13464;DHT22;6804;48.774;9.174;2022-11-09T01:07:44;14.00;99.90
13464;DHT22;6804;48.774;9.174;2022-11-09T01:10:11;14.00;99.90
13464;DHT22;6804;48.774;9.174;2022-11-09T01:12:38;14.00;99.90
13464;DHT22;6804;48.774;9.174;2022-11-09T01:15:11;14.00;99.90
13464;DHT22;6804;48.774;9.174;2022-11-09T01:17:38;14.00;99.90
13464;DHT22;6804;48.774;9.174;2022-11-09T01:20:06;14.00;99.90
13464;DHT22;6804;48.774;9.174;2022-11-09T01:22:34;14.00;99.90
13464;DHT22;6804;48.774;9.174;2022-11-09T01:25:02;13.90;99.90
13464;DHT22;6804;48.774;9.174;2022-11-09T01:27:29;13.90;99.90
13464;DHT22;6804;48.774;9.174;2022-11-09T01:29:59;13.90;99.90
13464;DHT22;6804;48.774;9.174;2022-11-09T01:32:30;13.90;99.90
13464;DHT22;6804;48.774;9.174;2022-11-09T01:35:00;13.90;99.90
13464;DHT22;6804;48.774;9.174;2022-11-09T01:37:27;13.90;99.90
13464;DHT22;6804;48.774;9.174;2022-11-09T01:40:01;13.90;99.90
13464;DHT22;6804;48.774;9.174;2022-11-09T01:42:34;13.90;99.90
13464;DHT22;6804;48.774;9.174;2022-11-09T01:45:26;13.90;99.90
13464;DHT22;6804;48.774;9.174;2022-11-09T01:48:03;13.90;99.90
13464;DHT22;6804;48.774;9.174;2022-11-09T01:50:38;13.90;99.90
13464;DHT22;6804;48.774;9.174;2022-11-09T01:53:13;13.90;99.90
13464;DHT22;6804;48.774;9.174;2022-11-09T01:55:47;13.90;99.90
13464;DHT22;6804;48.774;9.174;2022-11-09T01:58:21;14.00;99.90
13464;DHT22;6804;48.774;9.174;2022-11-09T02:00:50;14.00;99.90
13464;DHT22;6804;48.774;9.174;2022-11-09T02:03:25;13.90;99.90
13464;DHT22;6804;48.774;9.174;2022-11-09T02:05:59;13.90;99.90
13464;DHT22;6804;48.774;9.174;2022-11-09T02:08:28;13.90;99.90
13464;DHT22;6804;48.774;9.174;2022-11-09T02:11:07;13.90;99.90
13464;DHT22;6804;48.774;9.174;2022-11-09T02:13:43;13.90;99.90
13464;DHT22;6804;48.774;9.174;2022-11-09T02:16:12;13.90;99.90
13464;DHT22;6804;48.774;9.174;2022-11-09T02:18:48;13.90;99.90
13464;DHT22;6804;48.774;9.174;2022-11-09T02:21:18;13.90;99.90
13464;DHT22;6804;48.774;9.174;2022-11-09T02:23:46;13.90;99.90
13464;DHT22;6804;48.774;9.174;2022-11-09T02:26:17;13.90;99.90
13464;DHT22;6804;48.774;9.174;2022-11-09T02:28:45;13.90;99.90
13464;DHT22;6804;48.774;9.174;2022-11-09T02:31:19;13.90;99.90
13464;DHT22;6804;48.774;9.174;2022-11-09T02:34:02;13.90;99.90
13464;DHT22;6804;48.774;9.174;2022-11-09T02:36:35;14.00;99.90
13464;DHT22;6804;48.774;9.174;2022-11-09T02:39:03;14.00;99.90
13464;DHT22;6804;48.774;9.174;2022-11-09T02:41:31;14.00;99.90
13464;DHT22;6804;48.774;9.174;2022-11-09T02:44:02;14.00;99.90
13464;DHT22;6804;48.774;9.174;2022-11-09T02:46:31;14.00;99.90
13464;DHT22;6804;48.774;9.174;2022-11-09T02:48:59;14.10;99.90
13464;DHT22;6804;48.774;9.174;2022-11-09T02:51:26;14.10;99.90
13464;DHT22;6804;48.774;9.174;2022-11-09T02:53:55;14.10;99.90
13464;DHT22;6804;48.774;9.174;2022-11-09T02:56:23;14.00;99.90
13464;DHT22;6804;48.774;9.174;2022-11-09T02:58:52;14.10;99.90
13464;DHT22;6804;48.774;9.174;2022-11-09T03:01:22;14.10;99.90
13464;DHT22;6804;48.774;9.174;2022-11-09T03:03:49;14.10;99.90
13464;DHT22;6804;48.774;9.174;2022-11-09T03:06:16;14.10;99.90
13464;DHT22;6804;48.774;9.174;2022-11-09T03:08:44;14.10;99.90
13464;DHT22;6804;48.774;9.174;2022-11-09T03:11:12;14.10;99.90
13464;DHT22;6804;48.774;9.174;2022-11-09T03:13:39;14.20;99.90
13464;DHT22;6804;48.774;9.174;2022-11-09T03:16:09;14.20;99.90
13464;DHT22;6804;48.774;9.174;2022-11-09T03:18:37;14.20;99.90
13464;DHT22;6804;48.774;9.174;2022-11-09T03:21:05;14.10;99.90
13464;DHT22;6804;48.774;9.174;2022-11-09T03:23:32;14.10;99.90
13464;DHT22;6804;48.774;9.174;2022-11-09T03:26:03;14.00;99.90
13464;DHT22;6804;48.774;9.174;2022-11-09T03:28:32;14.00;99.90
13464;DHT22;6804;48.774;9.174;2022-11-09T03:31:01;14.00;99.90
13464;DHT22;6804;48.774;9.174;2022-11-09T03:33:28;14.00;99.90
13464;DHT22;6804;48.774;9.174;2022-11-09T03:35:55;14.00;99.90
13464;DHT22;6804;48.774;9.174;2022-11-09T03:38:22;14.00;99.90
13464;DHT22;6804;48.774;9.174;2022-11-09T03:40:50;14.00;99.90
13464;DHT22;6804;48.774;9.174;2022-11-09T03:43:25;13.90;99.90
13464;DHT22;6804;48.774;9.174;2022-11-09T03:45:54;13.90;99.90
13464;DHT22;6804;48.774;9.174;2022-11-09T03:48:24;13.90;99.90
13464;DHT22;6804;48.774;9.174;2022-11-09T03:50:57;13.90;99.90
13464;DHT22;6804;48.774;9.174;2022-11-09T03:53:24;13.80;99.90
13464;DHT22;6804;48.774;9.174;2022-11-09T03:55:52;13.80;99.90
13464;DHT22;6804;48.774;9.174;2022-11-09T03:58:19;13.80;99.90
13464;DHT22;6804;48.774;9.174;2022-11-09T04:00:46;13.80;99.90
13464;DHT22;6804;48.774;9.174;2022-11-09T04:03:15;13.70;99.90
13464;DHT22;6804;48.774;9.174;2022-11-09T04:05:45;13.70;99.90
13464;DHT22;6804;48.774;9.174;2022-11-09T04:08:12;13.70;99.90
13464;DHT22;6804;48.774;9.174;2022-11-09T04:10:39;13.60;99.90
13464;DHT22;6804;48.774;9.174;2022-11-09T04:13:06;13.60;99.90
13464;DHT22;6804;48.774;9.174;2022-11-09T04:15:33;13.60;99.90
13464;DHT22;6804;48.774;9.174;2022-11-09T04:18:01;13.50;99.90
13464;DHT22;6804;48.774;9.174;2022-11-09T04:20:31;13.40;99.90
13464;DHT22;6804;48.774;9.174;2022-11-09T04:23:10;13.30;99.90
13464;DHT22;6804;48.774;9.174;2022-11-09T04:25:41;13.20;99.90
13464;DHT22;6804;48.774;9.174;2022-11-09T04:28:12;13.20;99.90
13464;DHT22;6804;48.774;9.174;2022-11-09T04:30:41;13.20;99.90
13464;DHT22;6804;48.774;9.174;2022-11-09T04:33:09;13.10;99.90
13464;DHT22;6804;48.774;9.174;2022-11-09T04:35:37;13.10;99.90
13464;DHT22;6804;48.774;9.174;2022-11-09T04:38:10;13.00;99.90
13464;DHT22;6804;48.774;9.174;2022-11-09T04:40:38;13.00;99.90
13464;DHT22;6804;48.774;9.174;2022-11-09T04:43:08;13.00;99.90
13464;DHT22;6804;48.774;9.174;2022-11-09T04:45:36;13.10;99.90
13464;DHT22;6804;48.774;9.174;2022-11-09T04:48:07;13.10;99.90
13464;DHT22;6804;48.774;9.174;2022-11-09T04:50:34;13.20;99.90
13464;DHT22;6804;48.774;9.174;2022-11-09T04:53:07;13.20;99.90
13464;DHT22;6804;48.774;9.174;2022-11-09T04:55:37;13.20;99.90
13464;DHT22;6804;48.774;9.174;2022-11-09T04:58:05;13.30;99.90
13464;DHT22;6804;48.774;9.174;2022-11-09T05:00:34;13.40;99.90
13464;DHT22;6804;48.774;9.174;2022-11-09T05:03:02;13.40;99.90
13464;DHT22;6804;48.774;9.174;2022-11-09T05:05:31;13.40;99.90
13464;DHT22;6804;48.774;9.174;2022-11-09T05:07:59;13.40;99.90
13464;DHT22;6804;48.774;9.174;2022-11-09T05:10:28;13.40;99.90
13464;DHT22;6804;48.774;9.174;2022-11-09T05:12:58;13.40;99.90
13464;DHT22;6804;48.774;9.174;2022-11-09T05:15:25;13.40;99.90
13464;DHT22;6804;48.774;9.174;2022-11-09T05:17:53;13.40;99.90
13464;DHT22;6804;48.774;9.174;2022-11-09T05:20:23;13.40;99.90
13464;DHT22;6804;48.774;9.174;2022-11-09T05:22:51;13.40;99.90
13464;DHT22;6804;48.774;9.174;2022-11-09T05:25:47;13.40;99.90
13464;DHT22;6804;48.774;9.174;2022-11-09T05:28:16;13.30;99.90
13464;DHT22;6804;48.774;9.174;2022-11-09T05:30:45;13.30;99.90
13464;DHT22;6804;48.774;9.174;2022-11-09T05:33:12;13.30;99.90
13464;DHT22;6804;48.774;9.174;2022-11-09T05:35:43;13.30;99.90
13464;DHT22;6804;48.774;9.174;2022-11-09T05:38:10;13.30;99.90
13464;DHT22;6804;48.774;9.174;2022-11-09T05:40:37;13.30;99.90
13464;DHT22;6804;48.774;9.174;2022-11-09T05:43:07;13.30;99.90
13464;DHT22;6804;48.774;9.174;2022-11-09T05:45:34;13.00;99.90
13464;DHT22;6804;48.774;9.174;2022-11-09T05:48:06;12.80;99.90
13464;DHT22;6804;48.774;9.174;2022-11-09T05:50:35;12.80;99.90
13464;DHT22;6804;48.774;9.174;2022-11-09T05:53:07;12.70;99.90
13464;DHT22;6804;48.774;9.174;2022-11-09T05:55:37;12.80;99.90
13464;DHT22;6804;48.774;9.174;2022-11-09T05:58:07;12.90;99.90
13464;DHT22;6804;48.774;9.174;2022-11-09T06:00:40;12.90;99.90
13464;DHT22;6804;48.774;9.174;2022-11-09T06:03:09;13.00;99.90
13464;DHT22;6804;48.774;9.174;2022-11-09T06:05:38;13.00;99.90
13464;DHT22;6804;48.774;9.174;2022-11-09T06:08:10;13.00;99.90
13464;DHT22;6804;48.774;9.174;2022-11-09T06:10:38;13.10;99.90
13464;DHT22;6804;48.774;9.174;2022-11-09T06:13:10;13.10;99.90
13464;DHT22;6804;48.774;9.174;2022-11-09T06:15:38;13.10;99.90
13464;DHT22;6804;48.774;9.174;2022-11-09T06:18:07;13.10;99.90
13464;DHT22;6804;48.774;9.174;2022-11-09T06:20:39;13.10;99.90
13464;DHT22;6804;48.774;9.174;2022-11-09T06:23:09;13.00;99.90
13464;DHT22;6804;48.774;9.174;2022-11-09T06:25:37;13.10;99.90
13464;DHT22;6804;48.774;9.174;2022-11-09T06:28:04;13.00;99.90
13464;DHT22;6804;48.774;9.174;2022-11-09T06:30:33;13.00;99.90
13464;DHT22;6804;48.774;9.174;2022-11-09T06:33:02;13.00;99.90
13464;DHT22;6804;48.774;9.174;2022-11-09T06:35:29;13.00;99.90
13464;DHT22;6804;48.774;9.174;2022-11-09T06:37:57;13.10;99.90
13464;DHT22;6804;48.774;9.174;2022-11-09T06:40:25;13.10;99.90
13464;DHT22;6804;48.774;9.174;2022-11-09T06:42:55;13.10;99.90
13464;DHT22;6804;48.774;9.174;2022-11-09T06:45:23;13.10;99.90
13464;DHT22;6804;48.774;9.174;2022-11-09T06:47:55;13.10;99.90
13464;DHT22;6804;48.774;9.174;2022-11-09T06:50:23;13.10;99.90
13464;DHT22;6804;48.774;9.174;2022-11-09T06:52:55;13.10;99.90
13464;DHT22;6804;48.774;9.174;2022-11-09T06:55:26;13.20;99.90
13464;DHT22;6804;48.774;9.174;2022-11-09T06:57:54;13.20;99.90
13464;DHT22;6804;48.774;9.174;2022-11-09T07:00:25;13.20;99.90
13464;DHT22;6804;48.774;9.174;2022-11-09T07:02:55;13.20;99.90
13464;DHT22;6804;48.774;9.174;2022-11-09T07:05:22;13.20;99.90
13464;DHT22;6804;48.774;9.174;2022-11-09T07:07:49;13.20;99.90
13464;DHT22;6804;48.774;9.174;2022-11-09T07:10:20;13.20;99.90
13464;DHT22;6804;48.774;9.174;2022-11-09T07:12:50;13.30;99.90
13464;DHT22;6804;48.774;9.174;2022-11-09T07:15:18;13.20;99.90
13464;DHT22;6804;48.774;9.174;2022-11-09T07:17:45;13.20;99.90
13464;DHT22;6804;48.774;9.174;2022-11-09T07:20:16;13.30;99.90
13464;DHT22;6804;48.774;9.174;2022-11-09T07:22:50;13.20;99.90
13464;DHT22;6804;48.774;9.174;2022-11-09T07:25:18;13.20;99.90
13464;DHT22;6804;48.774;9.174;2022-11-09T07:27:46;13.20;99.90
13464;DHT22;6804;48.774;9.174;2022-11-09T07:30:13;13.20;99.90
13464;DHT22;6804;48.774;9.174;2022-11-09T07:32:41;13.10;99.90
13464;DHT22;6804;48.774;9.174;2022-11-09T07:35:11;13.10;99.90
13464;DHT22;6804;48.774;9.174;2022-11-09T07:37:42;13.10;99.90
13464;DHT22;6804;48.774;9.174;2022-11-09T07:40:13;13.10;99.90
13464;DHT22;6804;48.774;9.174;2022-11-09T07:42:40;13.00;99.90
13464;DHT22;6804;48.774;9.174;2022-11-09T07:45:08;12.90;99.90
13464;DHT22;6804;48.774;9.174;2022-11-09T07:47:36;12.90;99.90
13464;DHT22;6804;48.774;9.174;2022-11-09T07:50:05;12.80;99.90
13464;DHT22;6804;48.774;9.174;2022-11-09T07:52:36;12.80;99.90
13464;DHT22;6804;48.774;9.174;2022-11-09T07:55:10;12.80;99.90
13464;DHT22;6804;48.774;9.174;2022-11-09T07:57:43;12.90;99.90
13464;DHT22;6804;48.774;9.174;2022-11-09T08:00:13;13.00;99.90
13464;DHT22;6804;48.774;9.174;2022-11-09T08:02:40;13.10;99.90
13464;DHT22;6804;48.774;9.174;2022-11-09T08:05:08;13.10;99.90
13464;DHT22;6804;48.774;9.174;2022-11-09T08:07:35;13.20;99.90
13464;DHT22;6804;48.774;9.174;2022-11-09T08:10:05;13.20;99.90
13464;DHT22;6804;48.774;9.174;2022-11-09T08:12:33;13.30;99.90
13464;DHT22;6804;48.774;9.174;2022-11-09T08:15:01;13.30;99.90
13464;DHT22;6804;48.774;9.174;2022-11-09T08:17:31;13.40;99.90
13464;DHT22;6804;48.774;9.174;2022-11-09T08:20:02;13.40;99.90
13464;DHT22;6804;48.774;9.174;2022-11-09T08:22:29;13.40;99.90
13464;DHT22;6804;48.774;9.174;2022-11-09T08:24:57;13.40;99.90
13464;DHT22;6804;48.774;9.174;2022-11-09T08:27:34;13.40;99.90
13464;DHT22;6804;48.774;9.174;2022-11-09T08:30:06;13.40;99.90
13464;DHT22;6804;48.774;9.174;2022-11-09T08:32:33;13.40;99.90
13464;DHT22;6804;48.774;9.174;2022-11-09T08:35:01;13.40;99.90
13464;DHT22;6804;48.774;9.174;2022-11-09T08:37:29;13.40;99.90
13464;DHT22;6804;48.774;9.174;2022-11-09T08:39:56;13.40;99.90
13464;DHT22;6804;48.774;9.174;2022-11-09T08:42:26;13.40;99.90
13464;DHT22;6804;48.774;9.174;2022-11-09T08:44:55;13.40;99.90
13464;DHT22;6804;48.774;9.174;2022-11-09T08:47:22;13.40;99.90
13464;DHT22;6804;48.774;9.174;2022-11-09T08:49:49;13.40;99.90
13464;DHT22;6804;48.774;9.174;2022-11-09T08:52:17;13.50;99.90
13464;DHT22;6804;48.774;9.174;2022-11-09T08:54:45;13.50;99.90
13464;DHT22;6804;48.774;9.174;2022-11-09T08:57:12;13.50;99.90
13464;DHT22;6804;48.774;9.174;2022-11-09T08:59:40;13.60;99.90
13464;DHT22;6804;48.774;9.174;2022-11-09T09:02:12;13.60;99.90
13464;DHT22;6804;48.774;9.174;2022-11-09T09:04:41;13.60;99.90
13464;DHT22;6804;48.774;9.174;2022-11-09T09:07:09;13.70;99.90
13464;DHT22;6804;48.774;9.174;2022-11-09T09:09:43;13.70;99.90
13464;DHT22;6804;48.774;9.174;2022-11-09T09:12:10;13.70;99.90
13464;DHT22;6804;48.774;9.174;2022-11-09T09:14:38;13.70;99.90
13464;DHT22;6804;48.774;9.174;2022-11-09T09:17:05;13.80;99.90
13464;DHT22;6804;48.774;9.174;2022-11-09T09:19:34;13.80;99.90
13464;DHT22;6804;48.774;9.174;2022-11-09T09:22:04;13.80;99.90
13464;DHT22;6804;48.774;9.174;2022-11-09T09:27:00;13.90;99.90
13464;DHT22;6804;48.774;9.174;2022-11-09T09:29:30;13.90;99.90
13464;DHT22;6804;48.774;9.174;2022-11-09T09:31:57;13.90;99.90
13464;DHT22;6804;48.774;9.174;2022-11-09T09:34:28;13.90;99.90
13464;DHT22;6804;48.774;9.174;2022-11-09T09:37:07;14.00;99.90
13464;DHT22;6804;48.774;9.174;2022-11-09T09:39:34;14.00;99.90
13464;DHT22;6804;48.774;9.174;2022-11-09T09:42:05;14.00;99.90
13464;DHT22;6804;48.774;9.174;2022-11-09T09:44:37;14.00;99.90
13464;DHT22;6804;48.774;9.174;2022-11-09T09:47:09;14.10;99.90
13464;DHT22;6804;48.774;9.174;2022-11-09T09:49:44;14.10;99.90
13464;DHT22;6804;48.774;9.174;2022-11-09T09:52:22;14.10;99.90
13464;DHT22;6804;48.774;9.174;2022-11-09T09:54:58;14.10;99.90
13464;DHT22;6804;48.774;9.174;2022-11-09T09:57:31;14.10;99.90
13464;DHT22;6804;48.774;9.174;2022-11-09T10:00:03;14.20;99.90
13464;DHT22;6804;48.774;9.174;2022-11-09T10:02:35;14.20;99.90
13464;DHT22;6804;48.774;9.174;2022-11-09T10:05:16;14.20;99.90
13464;DHT22;6804;48.774;9.174;2022-11-09T10:07:50;14.20;99.90
13464;DHT22;6804;48.774;9.174;2022-11-09T10:10:35;14.30;99.90
13464;DHT22;6804;48.774;9.174;2022-11-09T10:13:38;14.30;99.90
13464;DHT22;6804;48.774;9.174;2022-11-09T10:16:16;14.30;99.90
13464;DHT22;6804;48.774;9.174;2022-11-09T10:19:01;14.40;99.90
13464;DHT22;6804;48.774;9.174;2022-11-09T10:21:40;14.40;99.90
13464;DHT22;6804;48.774;9.174;2022-11-09T10:24:26;14.40;99.90
13464;DHT22;6804;48.774;9.174;2022-11-09T10:27:00;14.50;99.90
13464;DHT22;6804;48.774;9.174;2022-11-09T10:29:34;14.50;99.90
13464;DHT22;6804;48.774;9.174;2022-11-09T10:32:11;14.50;99.90
13464;DHT22;6804;48.774;9.174;2022-11-09T10:34:46;14.60;99.90
13464;DHT22;6804;48.774;9.174;2022-11-09T10:37:25;14.60;99.90
13464;DHT22;6804;48.774;9.174;2022-11-09T10:40:10;14.70;99.90
13464;DHT22;6804;48.774;9.174;2022-11-09T10:42:47;14.80;99.90
13464;DHT22;6804;48.774;9.174;2022-11-09T10:45:20;14.80;99.90
13464;DHT22;6804;48.774;9.174;2022-11-09T10:47:52;14.90;99.90
13464;DHT22;6804;48.774;9.174;2022-11-09T10:50:31;15.00;99.90
13464;DHT22;6804;48.774;9.174;2022-11-09T10:53:14;15.00;99.90
13464;DHT22;6804;48.774;9.174;2022-11-09T10:55:52;15.10;99.90
13464;DHT22;6804;48.774;9.174;2022-11-09T10:58:27;15.10;99.90
13464;DHT22;6804;48.774;9.174;2022-11-09T11:00:59;15.10;99.90
13464;DHT22;6804;48.774;9.174;2022-11-09T11:03:29;15.10;99.90
13464;DHT22;6804;48.774;9.174;2022-11-09T11:06:00;15.20;99.90
13464;DHT22;6804;48.774;9.174;2022-11-09T11:08:37;15.20;99.90
13464;DHT22;6804;48.774;9.174;2022-11-09T11:11:21;15.20;99.90
13464;DHT22;6804;48.774;9.174;2022-11-09T11:13:50;15.20;99.90
13464;DHT22;6804;48.774;9.174;2022-11-09T11:16:32;15.30;99.90
13464;DHT22;6804;48.774;9.174;2022-11-09T11:19:01;15.30;99.90
13464;DHT22;6804;48.774;9.174;2022-11-09T11:21:32;15.30;99.90
13464;DHT22;6804;48.774;9.174;2022-11-09T11:24:13;15.40;99.90
13464;DHT22;6804;48.774;9.174;2022-11-09T11:27:00;15.40;99.90
13464;DHT22;6804;48.774;9.174;2022-11-09T11:29:39;15.50;99.90
13464;DHT22;6804;48.774;9.174;2022-11-09T11:32:10;15.50;99.90
13464;DHT22;6804;48.774;9.174;2022-11-09T11:34:42;15.50;99.90
13464;DHT22;6804;48.774;9.174;2022-11-09T11:37:23;15.60;99.90
13464;DHT22;6804;48.774;9.174;2022-11-09T11:40:00;15.60;99.90
13464;DHT22;6804;48.774;9.174;2022-11-09T11:43:02;15.60;99.90
13464;DHT22;6804;48.774;9.174;2022-11-09T11:45:40;15.60;99.90
13464;DHT22;6804;48.774;9.174;2022-11-09T11:48:33;15.60;99.90
13464;DHT22;6804;48.774;9.174;2022-11-09T11:51:09;15.60;99.90
13464;DHT22;6804;48.774;9.174;2022-11-09T11:53:50;15.60;99.90
13464;DHT22;6804;48.774;9.174;2022-11-09T11:56:29;15.60;99.90
13464;DHT22;6804;48.774;9.174;2022-11-09T11:59:36;15.60;99.90
13464;DHT22;6804;48.774;9.174;2022-11-09T12:08:27;15.70;99.90
13464;DHT22;6804;48.774;9.174;2022-11-09T12:11:05;15.70;99.90
13464;DHT22;6804;48.774;9.174;2022-11-09T12:13:49;15.70;99.90
13464;DHT22;6804;48.774;9.174;2022-11-09T12:16:26;15.70;99.90
13464;DHT22;6804;48.774;9.174;2022-11-09T12:22:10;15.70;99.90
13464;DHT22;6804;48.774;9.174;2022-11-09T12:24:49;15.70;99.90
13464;DHT22;6804;48.774;9.174;2022-11-09T12:27:44;15.70;99.90
13464;DHT22;6804;48.774;9.174;2022-11-09T12:30:16;15.80;99.90
13464;DHT22;6804;48.774;9.174;2022-11-09T12:32:51;15.80;99.90
13464;DHT22;6804;48.774;9.174;2022-11-09T12:35:27;15.80;99.90
13464;DHT22;6804;48.774;9.174;2022-11-09T12:38:02;15.90;99.90
13464;DHT22;6804;48.774;9.174;2022-11-09T12:40:36;15.80;99.90
13464;DHT22;6804;48.774;9.174;2022-11-09T12:43:12;15.80;99.90
13464;DHT22;6804;48.774;9.174;2022-11-09T12:45:43;15.90;99.90
13464;DHT22;6804;48.774;9.174;2022-11-09T12:48:20;15.90;99.90
13464;DHT22;6804;48.774;9.174;2022-11-09T12:50:51;15.90;99.90
13464;DHT22;6804;48.774;9.174;2022-11-09T12:53:25;15.90;99.90
13464;DHT22;6804;48.774;9.174;2022-11-09T12:56:01;16.00;99.90
13464;DHT22;6804;48.774;9.174;2022-11-09T12:58:30;16.00;99.90
13464;DHT22;6804;48.774;9.174;2022-11-09T13:01:00;16.00;99.90
13464;DHT22;6804;48.774;9.174;2022-11-09T13:03:35;16.00;99.90
13464;DHT22;6804;48.774;9.174;2022-11-09T13:06:13;16.00;99.90
13464;DHT22;6804;48.774;9.174;2022-11-09T13:08:54;16.10;99.90
13464;DHT22;6804;48.774;9.174;2022-11-09T13:11:34;16.10;99.90
13464;DHT22;6804;48.774;9.174;2022-11-09T13:14:26;16.10;99.90
13464;DHT22;6804;48.774;9.174;2022-11-09T13:16:59;16.10;99.90
13464;DHT22;6804;48.774;9.174;2022-11-09T13:19:53;16.10;99.90
13464;DHT22;6804;48.774;9.174;2022-11-09T13:25:46;16.10;99.90
13464;DHT22;6804;48.774;9.174;2022-11-09T13:31:59;16.10;99.90
13464;DHT22;6804;48.774;9.174;2022-11-09T13:34:46;16.10;99.90
13464;DHT22;6804;48.774;9.174;2022-11-09T13:37:54;16.00;99.90
13464;DHT22;6804;48.774;9.174;2022-11-09T13:40:41;16.10;99.90
13464;DHT22;6804;48.774;9.174;2022-11-09T13:43:24;16.10;99.90
13464;DHT22;6804;48.774;9.174;2022-11-09T13:45:54;16.00;99.90
13464;DHT22;6804;48.774;9.174;2022-11-09T13:48:40;16.00;99.90
13464;DHT22;6804;48.774;9.174;2022-11-09T13:51:10;16.00;99.90
13464;DHT22;6804;48.774;9.174;2022-11-09T13:54:26;16.00;99.90
13464;DHT22;6804;48.774;9.174;2022-11-09T13:56:43;16.00;99.90
13464;DHT22;6804;48.774;9.174;2022-11-09T13:59:21;16.00;99.90
13464;DHT22;6804;48.774;9.174;2022-11-09T14:01:53;16.00;99.90
13464;DHT22;6804;48.774;9.174;2022-11-09T14:04:25;16.00;99.90
13464;DHT22;6804;48.774;9.174;2022-11-09T14:07:02;16.00;99.90
13464;DHT22;6804;48.774;9.174;2022-11-09T14:09:38;16.00;99.90
13464;DHT22;6804;48.774;9.174;2022-11-09T14:12:32;16.00;99.90
13464;DHT22;6804;48.774;9.174;2022-11-09T14:15:23;16.00;99.90
13464;DHT22;6804;48.774;9.174;2022-11-09T14:18:09;16.00;99.90
13464;DHT22;6804;48.774;9.174;2022-11-09T14:20:48;16.00;99.90
13464;DHT22;6804;48.774;9.174;2022-11-09T14:23:27;15.90;99.90
13464;DHT22;6804;48.774;9.174;2022-11-09T14:25:57;15.90;99.90
13464;DHT22;6804;48.774;9.174;2022-11-09T14:28:31;15.90;99.90
13464;DHT22;6804;48.774;9.174;2022-11-09T14:31:00;15.90;99.90
13464;DHT22;6804;48.774;9.174;2022-11-09T14:33:35;15.90;99.90
13464;DHT22;6804;48.774;9.174;2022-11-09T14:36:06;15.90;99.90
13464;DHT22;6804;48.774;9.174;2022-11-09T14:38:35;15.90;99.90
13464;DHT22;6804;48.774;9.174;2022-11-09T14:41:17;15.90;99.90
13464;DHT22;6804;48.774;9.174;2022-11-09T14:43:50;15.90;99.90
13464;DHT22;6804;48.774;9.174;2022-11-09T14:46:25;15.90;99.90
13464;DHT22;6804;48.774;9.174;2022-11-09T14:48:57;15.80;99.90
13464;DHT22;6804;48.774;9.174;2022-11-09T14:51:29;15.80;99.90
13464;DHT22;6804;48.774;9.174;2022-11-09T14:53:58;15.80;99.90
13464;DHT22;6804;48.774;9.174;2022-11-09T14:56:31;15.80;99.90
13464;DHT22;6804;48.774;9.174;2022-11-09T14:58:59;15.70;99.90
13464;DHT22;6804;48.774;9.174;2022-11-09T15:01:28;15.70;99.90
13464;DHT22;6804;48.774;9.174;2022-11-09T15:04:08;15.60;99.90
13464;DHT22;6804;48.774;9.174;2022-11-09T15:06:43;15.60;99.90
13464;DHT22;6804;48.774;9.174;2022-11-09T15:09:18;15.60;99.90
13464;DHT22;6804;48.774;9.174;2022-11-09T15:11:50;15.60;99.90
13464;DHT22;6804;48.774;9.174;2022-11-09T15:14:24;15.60;99.90
13464;DHT22;6804;48.774;9.174;2022-11-09T15:17:01;15.60;99.90
13464;DHT22;6804;48.774;9.174;2022-11-09T15:19:33;15.60;99.90
13464;DHT22;6804;48.774;9.174;2022-11-09T15:22:01;15.50;99.90
13464;DHT22;6804;48.774;9.174;2022-11-09T15:24:44;15.50;99.90
13464;DHT22;6804;48.774;9.174;2022-11-09T15:27:32;15.50;99.90
13464;DHT22;6804;48.774;9.174;2022-11-09T15:29:59;15.50;99.90
13464;DHT22;6804;48.774;9.174;2022-11-09T15:32:36;15.40;99.90
13464;DHT22;6804;48.774;9.174;2022-11-09T15:35:16;15.40;99.90
13464;DHT22;6804;48.774;9.174;2022-11-09T15:37:49;15.40;99.90
13464;DHT22;6804;48.774;9.174;2022-11-09T15:40:18;15.40;99.90
13464;DHT22;6804;48.774;9.174;2022-11-09T15:42:48;15.40;99.90
13464;DHT22;6804;48.774;9.174;2022-11-09T15:45:18;15.30;99.90
13464;DHT22;6804;48.774;9.174;2022-11-09T15:47:57;15.30;99.90
13464;DHT22;6804;48.774;9.174;2022-11-09T15:50:26;15.30;99.90
13464;DHT22;6804;48.774;9.174;2022-11-09T15:52:55;15.30;99.90
13464;DHT22;6804;48.774;9.174;2022-11-09T15:55:22;15.30;99.90
13464;DHT22;6804;48.774;9.174;2022-11-09T15:57:52;15.20;99.90
13464;DHT22;6804;48.774;9.174;2022-11-09T16:00:20;15.20;99.90
13464;DHT22;6804;48.774;9.174;2022-11-09T16:02:48;15.20;99.90
13464;DHT22;6804;48.774;9.174;2022-11-09T16:05:16;15.20;99.90
13464;DHT22;6804;48.774;9.174;2022-11-09T16:07:47;15.20;99.90
13464;DHT22;6804;48.774;9.174;2022-11-09T16:10:15;15.20;99.90
13464;DHT22;6804;48.774;9.174;2022-11-09T16:12:46;15.20;99.90
13464;DHT22;6804;48.774;9.174;2022-11-09T16:15:15;15.20;99.90
13464;DHT22;6804;48.774;9.174;2022-11-09T16:17:42;15.20;99.90
13464;DHT22;6804;48.774;9.174;2022-11-09T16:20:11;15.20;99.90
13464;DHT22;6804;48.774;9.174;2022-11-09T16:22:38;15.20;99.90
13464;DHT22;6804;48.774;9.174;2022-11-09T16:25:06;15.20;99.90
13464;DHT22;6804;48.774;9.174;2022-11-09T16:27:37;15.10;99.90
13464;DHT22;6804;48.774;9.174;2022-11-09T16:30:08;15.20;99.90
13464;DHT22;6804;48.774;9.174;2022-11-09T16:32:37;15.20;99.90
13464;DHT22;6804;48.774;9.174;2022-11-09T16:35:08;15.10;99.90